Latitude: N 50° 09' 49" Longitude: W 05° 11' 53" Elevation: 168m ASL

There are 23 visitors online

Adverts
Latest METAR Data

Below are the latest METARs ("Meteorological Services to Airmen Reports"), for RNAS Culdrose and Newquay Airport.

EGDR - RNAS Culdrose
Distance from station: SW 6mi, 9km
Updated: Wed, 13-Dec-2017 9:03am GMT
Rain drizzle, Mostly cloudy
Rain drizzle, Mostly cloudy
 Wind from WSW
Wind: WSW 15 mph , 24 km/h, Gust: 29 mph , 46 km/h
Temperature: 48°F , 9°C
Wind Chill: 42°F , 6°C
Dew Point: 48°F , 9°C
Humidity: 100%
Barometer: 29.59 inHg , 1002 hPa
Summary: Rain Drizzle
Clouds: Mostly Cloudy
Visibility: 2 miles , 4 km
Cloud details: Partly Cloudy 400 ft
Mostly Cloudy 700 ft
Mostly Cloudy 1000 ft
2017/12/13 09:03 EGDR 130903Z 24013G25KT 4000 RADZ SCT004 BKN007 BKN010 09/09 Q1002 YLO2 TEMPO 2000 RADZ SCT001 RED
EGHQ - Newquay Airport
Distance from station: NE 21mi, 34km
Updated: Wed, 13-Dec-2017 8:50am GMT
Light rain, Mostly cloudy
Light rain, Mostly cloudy
 Wind from WSW
Wind: WSW 24 mph , 39 km/h, Gust: 36 mph , 57 km/h
Temperature: 48°F , 9°C
Wind Chill: 40°F , 4°C
Dew Point: 45°F , 7°C
Humidity: 87%
Barometer: 29.56 inHg , 1001 hPa
Summary: Light Rain
Clouds: Mostly Cloudy
Visibility: 5 miles , 8 km
Cloud details: Mostly Cloudy 1000 ft
2017/12/13 08:50 EGHQ 130850Z 24021G31KT 8000 -RA BKN010 09/07 Q1001
 
EGTE - Exeter Airport
Distance from station: ENE 88mi, 141km
Updated: Wed, 13-Dec-2017 8:50am GMT
Partly Cloudy
Partly Cloudy
 Wind from SSW
Wind: SSW 7 mph , 11 km/h
Temperature: 46°F , 8°C
Wind Chill: 42°F , 6°C
Dew Point: 43°F , 6°C
Humidity: 87%
Barometer: 29.56 inHg , 1001 hPa
Clouds: Partly Cloudy
Visibility: 6 miles , 10 km
Cloud details: Few Clouds 1000 ft
Partly Cloudy 3000 ft
2017/12/13 08:50 EGTE 130850Z 20006KT 9999 FEW010 SCT030 08/06 Q1001
EGHE - St Marys, IOS
Distance from station: W 51mi, 82km
Updated: Wed, 13-Dec-2017 8:50am GMT
Light rain, Drizzle, Mostly cloudy
Light rain, Drizzle, Mostly cloudy
 Wind from WSW
Wind: WSW 22 mph , 35 km/h
Temperature: 50°F , 10°C
Wind Chill: 43°F , 6°C
Dew Point: 48°F , 9°C
Humidity: 94%
Barometer: 29.62 inHg , 1003 hPa
Summary: Light rain, Drizzle
Clouds: Mostly Cloudy
Visibility: 2 miles , 3 km
Cloud details: Partly Cloudy 400 ft
Mostly Cloudy 900 ft
2017/12/13 08:50 EGHE 130850Z 25019KT 2500 -RADZ SCT004 BKN009 10/09 Q1003

Metar display script from Saratoga-Weather.org

UK - WEATHER STATION TOPSITES - UK World Weather Websites

This is a private weather station, never base important decisions or events on data from this weather station. Although every effort has been made to make the data as accurate as possible it does not meet MetOffice standards. It is proved as a guide of local weather conditions. We accept no liability for any loss which may arise from use of the data.

Copyright © Carnkie Weather 2009 - 2017.